Time;durP1;ratioP1;P1;durP2;ratioP2;P2;SDS_P1;SDS_P2;PMS_P1;PMS_P2;Temp;Humidity;BMP_temperature;BMP_pressure;BME280_temperature;BME280_humidity;BME280_pressure;Samples;Min_cycle;Max_cycle;Signal;HPM_P1;HPM_P2
2022/06/26 00:01:36;;;;;;;22.90;19.50;;;;;;;;;;4993455;28;20109;-82
2022/06/26 00:04:02;;;;;;;23.20;20.80;;;;;;;;;;4992736;28;20046;-82
2022/06/26 00:06:28;;;;;;;22.58;18.65;;;;;;;;;;4998313;28;20419;-82
2022/06/26 00:08:53;;;;;;;23.63;21.13;;;;;;;;;;5000621;28;20044;-82
2022/06/26 00:11:18;;;;;;;27.88;21.13;;;;;;;;;;5037193;28;20387;-82
2022/06/26 00:13:44;;;;;;;23.98;21.20;;;;;;;;;;4999053;28;20089;-82
2022/06/26 00:16:09;;;;;;;23.40;20.70;;;;;;;;;;5008034;28;20133;-82
2022/06/26 00:18:34;;;;;;;27.00;23.60;;;;;;;;;;5031309;28;20446;-82
2022/06/26 00:21:00;;;;;;;24.35;21.80;;;;;;;;;;5031638;28;20039;-81
2022/06/26 00:23:25;;;;;;;24.77;21.75;;;;;;;;;;5001719;28;20036;-82
2022/06/26 00:25:51;;;;;;;23.27;19.65;;;;;;;;;;5005173;28;20028;-82
2022/06/26 00:28:16;;;;;;;22.98;17.35;;;;;;;;;;4992860;28;20048;-82
2022/06/26 00:30:41;;;;;;;19.48;17.52;;;;;;;;;;4983156;28;20843;-82
2022/06/26 00:33:07;;;;;;;30.20;23.17;;;;;;;;;;5032780;28;20044;-83
2022/06/26 00:35:33;;;;;;;26.10;22.95;;;;;;;;;;5029149;28;20488;-82
2022/06/26 00:37:59;;;;;;;29.75;22.52;;;;;;;;;;5031241;28;20078;-81
2022/06/26 00:40:24;;;;;;;31.17;23.80;;;;;;;;;;5023952;28;20148;-82
2022/06/26 00:42:49;;;;;;;33.38;27.65;;;;;;;;;;5002625;28;22687;-82
2022/06/26 00:45:15;;;;;;;27.52;24.77;;;;;;;;;;5028706;28;20120;-82
2022/06/26 00:47:40;;;;;;;30.70;27.52;;;;;;;;;;5024886;28;20106;-82
2022/06/26 00:50:07;;;;;;;27.85;24.88;;;;;;;;;;4999864;28;20048;-82
2022/06/26 00:52:33;;;;;;;30.42;25.45;;;;;;;;;;4999706;28;20032;-82
2022/06/26 00:54:58;;;;;;;30.10;26.27;;;;;;;;;;4996297;28;20036;-82
2022/06/26 00:57:23;;;;;;;29.55;24.67;;;;;;;;;;5028386;28;20989;-82
2022/06/26 00:59:49;;;;;;;36.38;28.70;;;;;;;;;;4984482;28;20067;-82
2022/06/26 01:02:15;;;;;;;35.42;26.77;;;;;;;;;;4991806;28;20063;-81
2022/06/26 01:04:41;;;;;;;32.42;27.80;;;;;;;;;;5035888;28;20094;-81
2022/06/26 01:07:06;;;;;;;48.35;30.15;;;;;;;;;;5001247;28;20060;-82
2022/06/26 01:09:32;;;;;;;40.05;31.30;;;;;;;;;;5031100;28;20040;-81
2022/06/26 01:11:57;;;;;;;42.22;31.55;;;;;;;;;;5022795;28;20051;-82
2022/06/26 01:14:22;;;;;;;33.92;30.25;;;;;;;;;;5015276;28;20025;-82
2022/06/26 01:16:48;;;;;;;45.05;32.22;;;;;;;;;;5022749;28;20469;-81
2022/06/26 01:19:15;;;;;;;46.17;34.63;;;;;;;;;;5046747;28;20071;-82
2022/06/26 01:21:40;;;;;;;50.83;36.10;;;;;;;;;;5022450;28;20753;-82
2022/06/26 01:24:06;;;;;;;47.38;34.65;;;;;;;;;;5039342;28;20123;-81
2022/06/26 01:26:31;;;;;;;48.90;34.15;;;;;;;;;;5063598;28;20400;-82
2022/06/26 01:28:56;;;;;;;43.05;33.13;;;;;;;;;;5045946;28;20427;-82
2022/06/26 01:31:22;;;;;;;48.28;35.58;;;;;;;;;;5043934;28;20039;-80
2022/06/26 01:33:47;;;;;;;47.15;36.63;;;;;;;;;;5043818;28;20041;-81
2022/06/26 01:36:13;;;;;;;51.20;36.40;;;;;;;;;;5029975;28;20044;-83
2022/06/26 01:38:38;;;;;;;51.10;36.92;;;;;;;;;;5062090;28;20048;-82
2022/06/26 01:41:04;;;;;;;54.88;38.17;;;;;;;;;;5045833;28;20461;-82
2022/06/26 01:43:31;;;;;;;53.45;39.22;;;;;;;;;;5046586;28;20033;-82
2022/06/26 01:45:58;;;;;;;55.22;39.00;;;;;;;;;;5025538;28;20025;-83
2022/06/26 01:48:26;;;;;;;57.17;36.50;;;;;;;;;;5029595;28;20389;-82
2022/06/26 01:50:53;;;;;;;51.47;36.28;;;;;;;;;;5040718;28;20962;-82
2022/06/26 01:53:18;;;;;;;55.03;40.25;;;;;;;;;;5057875;28;20021;-82
2022/06/26 01:55:43;;;;;;;55.35;36.92;;;;;;;;;;5073356;28;20346;-83
2022/06/26 01:58:09;;;;;;;53.33;39.00;;;;;;;;;;5028630;28;20036;-82
2022/06/26 02:00:36;;;;;;;59.65;39.80;;;;;;;;;;5030884;28;20039;-82
2022/06/26 02:03:04;;;;;;;56.15;38.58;;;;;;;;;;5040551;28;20037;-82
2022/06/26 02:05:30;;;;;;;63.42;38.10;;;;;;;;;;5057798;28;20025;-82
2022/06/26 02:07:55;;;;;;;53.78;40.03;;;;;;;;;;5060705;28;20041;-82
2022/06/26 02:15:53;;;;;;;58.58;40.47;;;;;;;;;;5049569;28;20028;-81
2022/06/26 02:18:18;;;;;;;57.95;38.58;;;;;;;;;;5029536;28;20368;-82
2022/06/26 02:20:43;;;;;;;57.38;40.70;;;;;;;;;;5039218;28;20044;-83
2022/06/26 02:23:09;;;;;;;63.90;43.00;;;;;;;;;;5062878;28;20056;-82
2022/06/26 02:25:34;;;;;;;65.43;42.40;;;;;;;;;;5041229;28;20445;-83
2022/06/26 02:28:00;;;;;;;60.03;40.22;;;;;;;;;;5046088;28;20037;-81
2022/06/26 02:30:25;;;;;;;65.22;40.67;;;;;;;;;;5027558;28;20494;-82
2022/06/26 02:32:51;;;;;;;56.03;38.65;;;;;;;;;;5028887;28;20063;-82
2022/06/26 02:35:16;;;;;;;54.67;36.53;;;;;;;;;;5044097;28;20559;-81
2022/06/26 02:37:41;;;;;;;50.45;36.25;;;;;;;;;;5031487;28;20108;-81
2022/06/26 02:40:08;;;;;;;61.58;37.50;;;;;;;;;;5043621;28;20484;-81
2022/06/26 02:42:33;;;;;;;52.63;36.25;;;;;;;;;;5032993;28;20490;-81
2022/06/26 02:44:58;;;;;;;58.88;36.30;;;;;;;;;;5042155;28;20056;-81
2022/06/26 02:47:24;;;;;;;43.45;31.27;;;;;;;;;;5044906;28;20765;-82
2022/06/26 02:49:52;;;;;;;44.20;31.17;;;;;;;;;;5026333;28;20044;-82
2022/06/26 02:52:17;;;;;;;28.15;19.85;;;;;;;;;;5047344;28;20574;-82
2022/06/26 02:54:43;;;;;;;18.45;12.65;;;;;;;;;;5054583;28;20060;-81
2022/06/26 02:57:08;;;;;;;13.55;10.13;;;;;;;;;;5039674;28;20039;-80
2022/06/26 02:59:33;;;;;;;11.27;9.77;;;;;;;;;;5015519;28;20043;-81
2022/06/26 03:01:59;;;;;;;13.85;10.45;;;;;;;;;;5061042;28;20036;-81
2022/06/26 03:04:24;;;;;;;14.77;10.60;;;;;;;;;;5059105;28;20068;-82
2022/06/26 03:06:50;;;;;;;14.90;10.70;;;;;;;;;;5060336;28;20454;-82
2022/06/26 03:09:15;;;;;;;12.57;10.18;;;;;;;;;;5057923;28;20081;-81
2022/06/26 03:11:41;;;;;;;12.02;9.25;;;;;;;;;;5060110;28;20040;-81
2022/06/26 03:14:07;;;;;;;10.18;8.07;;;;;;;;;;5043914;28;20392;-81
2022/06/26 03:16:32;;;;;;;9.32;8.32;;;;;;;;;;5022780;28;20036;-82
2022/06/26 03:18:58;;;;;;;10.90;8.82;;;;;;;;;;5001778;28;20049;-80
2022/06/26 03:21:23;;;;;;;12.70;8.68;;;;;;;;;;5046590;28;20480;-81
2022/06/26 03:24:01;;;;;;;11.63;8.30;;;;;;;;;;5024260;28;20089;-81
2022/06/26 03:26:29;;;;;;;11.75;8.60;;;;;;;;;;5061548;28;20500;-81
2022/06/26 03:28:55;;;;;;;15.15;9.80;;;;;;;;;;5059056;28;20048;-81
2022/06/26 03:31:20;;;;;;;11.50;9.30;;;;;;;;;;5027801;28;20401;-82
2022/06/26 03:33:46;;;;;;;17.35;10.10;;;;;;;;;;5063147;28;20063;-80
2022/06/26 03:36:12;;;;;;;12.43;9.43;;;;;;;;;;5046350;28;20058;-80
2022/06/26 03:38:37;;;;;;;10.82;9.43;;;;;;;;;;5001303;28;20057;-82
2022/06/26 03:41:03;;;;;;;10.95;9.75;;;;;;;;;;5062866;28;20033;-81
2022/06/26 03:43:28;;;;;;;13.38;10.20;;;;;;;;;;5046014;28;20024;-82
2022/06/26 03:45:53;;;;;;;15.65;11.77;;;;;;;;;;5060539;28;20024;-81
2022/06/26 03:48:19;;;;;;;16.27;11.63;;;;;;;;;;5047576;28;20575;-81
2022/06/26 03:50:44;;;;;;;14.45;12.18;;;;;;;;;;5016519;28;20032;-81
2022/06/26 03:53:10;;;;;;;18.42;12.95;;;;;;;;;;5039185;28;20029;-81
2022/06/26 03:55:35;;;;;;;13.95;11.40;;;;;;;;;;5063230;28;20028;-81
2022/06/26 03:58:01;;;;;;;17.83;13.05;;;;;;;;;;5043513;28;20050;-81
2022/06/26 04:00:28;;;;;;;16.88;12.98;;;;;;;;;;5064328;28;20087;-81
2022/06/26 04:02:54;;;;;;;21.95;13.20;;;;;;;;;;5012585;28;20025;-81
2022/06/26 04:05:19;;;;;;;15.05;12.68;;;;;;;;;;5042970;28;20036;-82
2022/06/26 04:07:45;;;;;;;23.98;12.50;;;;;;;;;;5046836;28;20057;-82
2022/06/26 04:10:10;;;;;;;18.35;12.75;;;;;;;;;;5030419;28;20060;-81
2022/06/26 04:12:35;;;;;;;20.05;13.15;;;;;;;;;;5043446;28;20111;-82
2022/06/26 04:15:01;;;;;;;15.27;13.52;;;;;;;;;;5048752;28;20401;-81
2022/06/26 04:17:26;;;;;;;16.38;13.05;;;;;;;;;;5049301;28;20388;-81
2022/06/26 04:19:51;;;;;;;16.88;12.90;;;;;;;;;;5023573;28;20067;-82
2022/06/26 04:22:17;;;;;;;17.48;13.85;;;;;;;;;;5027841;28;20063;-81
2022/06/26 04:24:42;;;;;;;18.33;14.15;;;;;;;;;;5031563;28;20081;-81
2022/06/26 04:27:08;;;;;;;17.40;13.93;;;;;;;;;;5036795;28;20132;-81
2022/06/26 04:29:33;;;;;;;18.63;14.73;;;;;;;;;;5063363;28;20066;-81
2022/06/26 04:31:58;;;;;;;23.90;16.55;;;;;;;;;;5017445;28;20035;-80
2022/06/26 04:34:24;;;;;;;22.38;15.73;;;;;;;;;;5053437;28;20083;-81
2022/06/26 04:36:49;;;;;;;22.80;17.45;;;;;;;;;;5019749;28;20112;-81
2022/06/26 04:39:14;;;;;;;22.35;18.33;;;;;;;;;;5043405;28;20060;-81
2022/06/26 04:41:41;;;;;;;22.42;17.27;;;;;;;;;;5041492;28;20048;-81
2022/06/26 04:44:09;;;;;;;24.52;18.88;;;;;;;;;;5043324;28;20059;-81
2022/06/26 04:46:36;;;;;;;21.30;18.75;;;;;;;;;;5013958;28;20037;-82
2022/06/26 04:49:01;;;;;;;23.15;19.35;;;;;;;;;;5047404;28;20044;-81
2022/06/26 04:51:26;;;;;;;25.00;18.48;;;;;;;;;;5056617;28;20034;-81
2022/06/26 04:53:52;;;;;;;31.63;18.60;;;;;;;;;;5025707;28;20040;-81
2022/06/26 04:56:18;;;;;;;20.73;18.50;;;;;;;;;;5040626;28;20035;-80
2022/06/26 04:58:44;;;;;;;22.60;18.92;;;;;;;;;;5060405;28;20404;-82
2022/06/26 05:01:09;;;;;;;18.27;16.38;;;;;;;;;;5042583;28;20056;-82
2022/06/26 05:03:34;;;;;;;18.73;16.63;;;;;;;;;;5046351;28;20128;-81
2022/06/26 05:06:00;;;;;;;20.08;17.30;;;;;;;;;;5027544;28;20116;-81
2022/06/26 05:08:25;;;;;;;20.10;18.00;;;;;;;;;;5046633;28;20131;-80
2022/06/26 05:10:50;;;;;;;23.35;19.55;;;;;;;;;;5047603;28;20024;-81
2022/06/26 05:13:16;;;;;;;26.25;20.85;;;;;;;;;;5024796;28;20393;-80
2022/06/26 05:15:41;;;;;;;23.20;20.77;;;;;;;;;;5044293;28;20031;-81
2022/06/26 05:18:07;;;;;;;25.98;21.58;;;;;;;;;;5025821;28;20433;-81
2022/06/26 05:20:32;;;;;;;25.85;22.20;;;;;;;;;;5031203;28;20033;-80
2022/06/26 05:22:58;;;;;;;26.65;23.77;;;;;;;;;;5046091;28;20029;-80
2022/06/26 05:25:23;;;;;;;28.50;24.48;;;;;;;;;;5061375;28;20590;-81
2022/06/26 05:27:49;;;;;;;26.52;23.77;;;;;;;;;;5060389;28;20029;-80
2022/06/26 05:30:14;;;;;;;28.60;24.70;;;;;;;;;;5029996;28;20082;-80
2022/06/26 05:32:40;;;;;;;28.90;23.55;;;;;;;;;;5060988;28;20039;-81
2022/06/26 05:35:05;;;;;;;30.27;24.58;;;;;;;;;;5040002;28;20552;-81
2022/06/26 05:37:31;;;;;;;28.25;25.40;;;;;;;;;;5012268;28;20037;-82
2022/06/26 05:39:56;;;;;;;29.33;26.27;;;;;;;;;;5059921;28;20088;-80
2022/06/26 05:42:21;;;;;;;29.25;26.05;;;;;;;;;;5028728;28;20016;-81
2022/06/26 05:44:47;;;;;;;31.65;27.02;;;;;;;;;;5028721;28;20033;-81
2022/06/26 05:47:12;;;;;;;32.33;27.30;;;;;;;;;;5060550;28;21659;-80
2022/06/26 05:49:38;;;;;;;36.22;27.20;;;;;;;;;;5042594;28;20095;-79
2022/06/26 05:52:03;;;;;;;35.03;26.95;;;;;;;;;;5028152;28;20107;-79
2022/06/26 05:54:29;;;;;;;34.10;26.90;;;;;;;;;;5010566;28;20040;-80
2022/06/26 05:56:54;;;;;;;33.50;27.55;;;;;;;;;;5047339;28;20028;-80
2022/06/26 05:59:20;;;;;;;28.45;24.70;;;;;;;;;;5061611;28;20048;-81
2022/06/26 06:01:45;;;;;;;28.42;25.33;;;;;;;;;;5063992;28;20094;-80
2022/06/26 06:04:10;;;;;;;29.27;25.08;;;;;;;;;;5059340;28;20039;-80
2022/06/26 06:06:36;;;;;;;30.63;26.42;;;;;;;;;;5044929;28;20392;-80
2022/06/26 06:09:01;;;;;;;27.63;24.73;;;;;;;;;;5063317;28;20047;-81
2022/06/26 06:11:26;;;;;;;29.98;26.75;;;;;;;;;;5028009;28;20071;-80
2022/06/26 06:13:52;;;;;;;28.58;25.63;;;;;;;;;;5059684;28;20052;-81
2022/06/26 06:16:17;;;;;;;26.63;23.73;;;;;;;;;;5046501;28;20481;-79
2022/06/26 06:18:43;;;;;;;31.13;23.88;;;;;;;;;;5058987;28;20036;-80
2022/06/26 06:21:08;;;;;;;27.23;22.17;;;;;;;;;;5027971;28;20036;-79
2022/06/26 06:23:34;;;;;;;25.65;22.95;;;;;;;;;;5031076;28;20055;-79
2022/06/26 06:25:59;;;;;;;26.75;22.08;;;;;;;;;;5042812;28;20158;-81
2022/06/26 06:28:24;;;;;;;27.25;23.35;;;;;;;;;;5042329;28;20043;-80
2022/06/26 06:30:50;;;;;;;24.95;21.88;;;;;;;;;;5020619;28;20059;-80
2022/06/26 06:33:15;;;;;;;25.83;23.08;;;;;;;;;;5007098;28;20064;-80
2022/06/26 06:35:40;;;;;;;26.50;22.98;;;;;;;;;;5041879;28;20032;-81
2022/06/26 06:38:06;;;;;;;24.67;22.02;;;;;;;;;;5038237;28;20039;-80
2022/06/26 06:40:32;;;;;;;23.63;21.17;;;;;;;;;;5009755;28;20037;-79
2022/06/26 06:42:57;;;;;;;24.25;20.98;;;;;;;;;;5022454;28;20174;-80
2022/06/26 06:45:24;;;;;;;22.30;20.00;;;;;;;;;;5057621;28;20037;-80
2022/06/26 06:47:49;;;;;;;23.67;18.90;;;;;;;;;;5041272;28;20028;-79
2022/06/26 06:50:14;;;;;;;21.95;18.70;;;;;;;;;;5027839;28;20500;-79
2022/06/26 06:52:40;;;;;;;23.25;20.15;;;;;;;;;;5058777;28;20120;-80
2022/06/26 06:55:06;;;;;;;22.73;19.42;;;;;;;;;;5044764;28;20100;-80
2022/06/26 06:57:31;;;;;;;22.42;18.17;;;;;;;;;;5041779;28;20500;-81
2022/06/26 06:59:56;;;;;;;19.80;17.80;;;;;;;;;;5034278;28;20041;-80
2022/06/26 07:02:22;;;;;;;23.80;18.80;;;;;;;;;;5022823;28;20028;-78
2022/06/26 07:04:47;;;;;;;23.05;19.17;;;;;;;;;;5026130;28;20040;-78
2022/06/26 07:07:12;;;;;;;21.23;18.08;;;;;;;;;;5027774;28;20104;-78
2022/06/26 07:09:38;;;;;;;19.17;16.98;;;;;;;;;;4158993;28;10000917;-79
2022/06/26 07:12:04;;;;;;;18.73;16.73;;;;;;;;;;4148015;28;10000899;-79
2022/06/26 07:14:29;;;;;;;18.58;15.45;;;;;;;;;;5043522;28;20036;-77
2022/06/26 07:16:55;;;;;;;17.88;15.07;;;;;;;;;;5063585;28;20116;-75
2022/06/26 07:19:20;;;;;;;22.70;13.50;;;;;;;;;;5055979;28;20127;-76
2022/06/26 07:21:46;;;;;;;17.25;13.98;;;;;;;;;;5049428;28;20037;-77
2022/06/26 07:24:11;;;;;;;17.27;13.65;;;;;;;;;;5034733;28;20113;-76
2022/06/26 07:26:37;;;;;;;14.07;12.45;;;;;;;;;;5047101;28;20392;-76
2022/06/26 07:29:02;;;;;;;19.25;12.30;;;;;;;;;;5058906;28;20404;-77
2022/06/26 07:31:28;;;;;;;14.70;12.57;;;;;;;;;;5064340;28;20029;-75
2022/06/26 07:36:37;;;;;;;13.00;9.23;;;;;;;;;;5060585;28;20067;-75
2022/06/26 07:39:02;;;;;;;15.02;11.35;;;;;;;;;;5037826;28;20464;-76
2022/06/26 07:41:28;;;;;;;13.82;11.35;;;;;;;;;;5045512;28;20037;-77
2022/06/26 07:43:53;;;;;;;15.10;10.27;;;;;;;;;;5042834;28;20032;-77
2022/06/26 07:46:19;;;;;;;12.65;10.70;;;;;;;;;;5042856;28;20043;-77
2022/06/26 07:48:44;;;;;;;13.32;10.00;;;;;;;;;;5062247;28;20064;-77
2022/06/26 07:51:10;;;;;;;11.93;9.75;;;;;;;;;;5045650;28;20370;-77
2022/06/26 07:53:36;;;;;;;14.20;11.05;;;;;;;;;;5027520;28;20105;-75
2022/06/26 07:56:02;;;;;;;11.93;9.80;;;;;;;;;;5057666;28;20051;-76
2022/06/26 07:58:28;;;;;;;9.73;7.97;;;;;;;;;;5071238;28;20040;-78
2022/06/26 08:00:53;;;;;;;11.68;8.90;;;;;;;;;;5055518;28;20120;-76
2022/06/26 08:03:18;;;;;;;10.90;8.85;;;;;;;;;;5034712;28;20115;-76
2022/06/26 08:05:45;;;;;;;14.85;10.27;;;;;;;;;;5059912;28;20125;-77
2022/06/26 08:08:10;;;;;;;11.00;9.35;;;;;;;;;;5027023;28;20150;-75
2022/06/26 08:10:36;;;;;;;11.02;9.30;;;;;;;;;;5010375;28;20033;-76
2022/06/26 08:13:01;;;;;;;13.48;7.90;;;;;;;;;;5011181;28;20148;-76
2022/06/26 08:15:27;;;;;;;10.35;7.78;;;;;;;;;;5041971;28;20032;-77
2022/06/26 08:17:52;;;;;;;12.80;8.63;;;;;;;;;;5048221;28;20033;-76
2022/06/26 08:20:18;;;;;;;7.55;6.25;;;;;;;;;;5020963;28;20545;-76
2022/06/26 08:22:43;;;;;;;10.63;6.90;;;;;;;;;;5037255;28;20052;-77
2022/06/26 08:25:08;;;;;;;7.30;5.18;;;;;;;;;;5041524;28;20064;-76
2022/06/26 08:27:34;;;;;;;7.50;5.60;;;;;;;;;;5043493;28;20094;-77
2022/06/26 08:29:59;;;;;;;7.72;5.70;;;;;;;;;;5019890;28;20593;-77
2022/06/26 08:32:24;;;;;;;11.60;6.63;;;;;;;;;;5047696;28;20112;-77
2022/06/26 08:34:50;;;;;;;10.27;5.95;;;;;;;;;;5054755;28;20190;-77
2022/06/26 08:37:16;;;;;;;5.60;4.13;;;;;;;;;;5047584;28;20032;-75
2022/06/26 08:39:42;;;;;;;9.50;5.13;;;;;;;;;;5049563;28;20033;-76
2022/06/26 08:42:08;;;;;;;9.27;5.00;;;;;;;;;;5047472;28;20060;-77
2022/06/26 08:44:33;;;;;;;9.05;5.28;;;;;;;;;;5048960;28;20049;-77
2022/06/26 08:46:59;;;;;;;8.05;4.75;;;;;;;;;;5028485;28;20104;-76
2022/06/26 08:49:24;;;;;;;7.72;4.63;;;;;;;;;;5040432;28;20532;-77
2022/06/26 08:51:50;;;;;;;8.45;4.72;;;;;;;;;;5045696;28;20025;-77
2022/06/26 08:54:16;;;;;;;7.22;4.85;;;;;;;;;;5041399;28;20167;-77
2022/06/26 08:56:43;;;;;;;7.75;4.35;;;;;;;;;;5028789;28;20029;-77
2022/06/26 08:59:12;;;;;;;7.13;4.50;;;;;;;;;;5033434;28;20071;-77
2022/06/26 09:01:40;;;;;;;6.60;4.53;;;;;;;;;;5022814;28;20112;-76
2022/06/26 09:04:05;;;;;;;8.55;4.70;;;;;;;;;;5005100;28;20048;-76
2022/06/26 09:06:34;;;;;;;8.30;5.10;;;;;;;;;;5037926;28;20327;-76
2022/06/26 09:09:00;;;;;;;9.55;4.80;;;;;;;;;;5051087;28;20045;-77
2022/06/26 09:11:25;;;;;;;6.97;4.10;;;;;;;;;;5049898;28;20389;-75
2022/06/26 09:13:53;;;;;;;7.03;3.60;;;;;;;;;;4987455;28;20025;-75
2022/06/26 09:16:31;;;;;;;9.10;4.32;;;;;;;;;;5028851;28;20032;-75
2022/06/26 09:19:07;;;;;;;9.15;4.70;;;;;;;;;;5041538;28;20040;-75
2022/06/26 09:21:32;;;;;;;6.82;4.35;;;;;;;;;;5033179;28;20561;-76
2022/06/26 09:23:58;;;;;;;7.40;3.10;;;;;;;;;;5032384;28;20083;-76
2022/06/26 09:26:23;;;;;;;7.80;3.97;;;;;;;;;;5026229;28;20117;-76
2022/06/26 09:28:48;;;;;;;6.13;3.05;;;;;;;;;;5029650;28;20492;-76
2022/06/26 09:31:21;;;;;;;9.45;3.80;;;;;;;;;;5036421;28;20057;-76
2022/06/26 09:33:46;;;;;;;4.45;2.40;;;;;;;;;;5030162;28;20473;-76
2022/06/26 09:36:17;;;;;;;6.45;3.33;;;;;;;;;;5023205;28;20040;-76
2022/06/26 09:38:50;;;;;;;7.47;3.70;;;;;;;;;;5013748;28;20032;-76
2022/06/26 09:41:16;;;;;;;7.57;3.92;;;;;;;;;;5047900;28;20441;-78
2022/06/26 09:43:42;;;;;;;5.72;4.07;;;;;;;;;;5027846;28;20022;-77
2022/06/26 09:46:09;;;;;;;7.45;3.70;;;;;;;;;;5047868;28;20503;-77
2022/06/26 09:48:35;;;;;;;8.68;3.83;;;;;;;;;;5014382;28;20040;-76
2022/06/26 09:51:01;;;;;;;8.25;3.20;;;;;;;;;;5045385;28;20041;-76
2022/06/26 09:53:27;;;;;;;4.93;2.92;;;;;;;;;;5049554;28;20112;-77
2022/06/26 09:55:53;;;;;;;4.85;2.80;;;;;;;;;;5022146;28;20024;-75
2022/06/26 09:58:19;;;;;;;8.27;3.60;;;;;;;;;;5038966;28;20044;-76
2022/06/26 10:06:28;;;;;;;7.68;3.83;;;;;;;;;;5036739;28;20496;-75
2022/06/26 10:08:58;;;;;;;6.28;3.10;;;;;;;;;;5060957;28;20041;-76
2022/06/26 10:11:27;;;;;;;7.00;4.22;;;;;;;;;;5055703;28;20052;-76
2022/06/26 10:14:13;;;;;;;5.18;3.30;;;;;;;;;;5051224;28;20037;-76
2022/06/26 10:17:16;;;;;;;10.15;3.17;;;;;;;;;;5039078;28;20021;-76
2022/06/26 10:19:52;;;;;;;7.00;3.33;;;;;;;;;;5054027;28;20024;-76
2022/06/26 10:22:18;;;;;;;5.47;3.10;;;;;;;;;;5040437;28;20037;-76
2022/06/26 10:24:48;;;;;;;6.60;2.75;;;;;;;;;;5034647;28;20521;-76
2022/06/26 10:27:14;;;;;;;5.75;2.83;;;;;;;;;;5055370;28;20181;-76
2022/06/26 10:29:40;;;;;;;6.63;2.78;;;;;;;;;;5037283;28;22703;-76
2022/06/26 10:32:06;;;;;;;6.03;2.72;;;;;;;;;;5036107;28;20053;-75
2022/06/26 10:34:31;;;;;;;7.30;3.30;;;;;;;;;;5022929;28;20492;-76
2022/06/26 10:37:04;;;;;;;4.03;2.58;;;;;;;;;;5049569;28;20033;-76
2022/06/26 10:39:38;;;;;;;7.38;2.65;;;;;;;;;;5051759;28;20474;-75
2022/06/26 10:44:58;;;;;;;5.70;3.28;;;;;;;;;;5050886;28;20136;-75
2022/06/26 10:47:23;;;;;;;5.15;2.90;;;;;;;;;;5033746;28;20043;-75
2022/06/26 10:49:50;;;;;;;6.45;3.72;;;;;;;;;;5057469;28;20041;-77
2022/06/26 10:52:28;;;;;;;8.07;3.38;;;;;;;;;;5035957;28;20025;-77
2022/06/26 10:54:54;;;;;;;6.10;3.10;;;;;;;;;;5053230;28;20112;-74
2022/06/26 10:57:32;;;;;;;6.45;3.58;;;;;;;;;;5050499;28;22436;-76
2022/06/26 10:59:59;;;;;;;6.40;3.35;;;;;;;;;;5047739;28;20052;-75
2022/06/26 11:02:25;;;;;;;10.85;3.13;;;;;;;;;;5017166;28;20505;-77
2022/06/26 11:04:50;;;;;;;5.57;2.85;;;;;;;;;;5062606;28;20116;-76
2022/06/26 11:07:16;;;;;;;9.45;3.20;;;;;;;;;;5033666;28;20476;-77
2022/06/26 11:09:42;;;;;;;5.32;2.78;;;;;;;;;;5050811;28;20043;-75
2022/06/26 11:12:07;;;;;;;4.93;2.90;;;;;;;;;;5024360;28;22322;-75
2022/06/26 11:14:33;;;;;;;6.10;2.70;;;;;;;;;;5037653;28;20041;-75
2022/06/26 11:16:58;;;;;;;6.13;3.03;;;;;;;;;;5047765;28;20490;-77
2022/06/26 11:19:31;;;;;;;6.20;3.00;;;;;;;;;;5052845;28;20089;-76
2022/06/26 11:22:06;;;;;;;6.03;2.42;;;;;;;;;;5035335;28;20033;-76
2022/06/26 11:24:32;;;;;;;5.47;2.70;;;;;;;;;;5033519;28;20104;-76
2022/06/26 11:26:57;;;;;;;5.95;3.10;;;;;;;;;;5049386;28;20619;-75
2022/06/26 11:29:23;;;;;;;4.68;2.30;;;;;;;;;;5045686;28;20136;-76
2022/06/26 11:31:48;;;;;;;4.35;2.13;;;;;;;;;;5000986;28;20107;-77
2022/06/26 11:34:14;;;;;;;4.88;2.63;;;;;;;;;;5027359;28;21011;-75
2022/06/26 11:36:50;;;;;;;4.10;2.00;;;;;;;;;;5025137;28;20036;-76
2022/06/26 11:39:15;;;;;;;9.23;2.70;;;;;;;;;;5049861;28;20031;-76
2022/06/26 11:41:41;;;;;;;6.22;2.50;;;;;;;;;;5031334;28;20037;-77
2022/06/26 11:44:06;;;;;;;4.50;2.22;;;;;;;;;;5048129;28;20112;-77
2022/06/26 11:46:31;;;;;;;7.38;2.58;;;;;;;;;;5046011;28;20051;-76
2022/06/26 11:48:57;;;;;;;5.68;2.67;;;;;;;;;;5018121;28;20587;-77
2022/06/26 11:51:22;;;;;;;6.57;2.58;;;;;;;;;;5049974;28;20172;-76
2022/06/26 11:53:49;;;;;;;5.25;2.28;;;;;;;;;;5052928;28;20119;-76
2022/06/26 11:56:22;;;;;;;5.07;2.60;;;;;;;;;;5050290;28;20465;-76
2022/06/26 11:58:49;;;;;;;8.48;2.70;;;;;;;;;;5044526;28;20163;-76
2022/06/26 12:01:14;;;;;;;6.97;3.00;;;;;;;;;;5050159;28;20486;-76
2022/06/26 12:03:42;;;;;;;7.82;3.35;;;;;;;;;;5007749;28;20037;-76
2022/06/26 12:06:08;;;;;;;6.78;2.70;;;;;;;;;;5036481;28;20045;-76
2022/06/26 12:08:33;;;;;;;4.65;2.25;;;;;;;;;;5027386;28;20382;-76
2022/06/26 12:10:58;;;;;;;4.75;2.65;;;;;;;;;;5053020;28;20108;-76
2022/06/26 12:13:26;;;;;;;5.80;2.58;;;;;;;;;;5055300;28;20347;-76
2022/06/26 12:15:52;;;;;;;6.07;2.65;;;;;;;;;;5021904;28;20087;-77
2022/06/26 12:18:17;;;;;;;6.82;2.10;;;;;;;;;;5049821;28;20455;-77
2022/06/26 12:20:43;;;;;;;5.68;2.10;;;;;;;;;;5053884;28;20044;-75
2022/06/26 12:23:09;;;;;;;5.32;2.45;;;;;;;;;;5034761;28;20037;-75
2022/06/26 12:25:35;;;;;;;5.85;2.10;;;;;;;;;;5020780;28;20496;-75
2022/06/26 12:28:01;;;;;;;3.88;2.10;;;;;;;;;;5043304;28;20135;-75
2022/06/26 12:30:28;;;;;;;14.60;2.90;;;;;;;;;;5025282;28;20085;-76
2022/06/26 12:32:57;;;;;;;5.13;2.22;;;;;;;;;;5053406;28;20048;-76
2022/06/26 12:35:23;;;;;;;8.07;2.47;;;;;;;;;;5054371;28;21308;-76
2022/06/26 12:37:49;;;;;;;4.18;2.10;;;;;;;;;;5056762;28;20032;-76
2022/06/26 12:40:14;;;;;;;7.70;2.42;;;;;;;;;;5032799;28;20102;-76
2022/06/26 12:42:40;;;;;;;6.18;2.58;;;;;;;;;;5051325;28;20568;-76
2022/06/26 12:45:06;;;;;;;4.65;2.33;;;;;;;;;;5050506;28;20040;-74
2022/06/26 12:47:31;;;;;;;5.88;2.70;;;;;;;;;;5048683;28;20089;-75
2022/06/26 12:49:57;;;;;;;4.50;2.00;;;;;;;;;;5049174;28;20115;-76
2022/06/26 12:52:22;;;;;;;7.32;2.80;;;;;;;;;;5009131;28;20037;-77
2022/06/26 12:54:48;;;;;;;5.97;2.50;;;;;;;;;;5053235;28;20025;-76
2022/06/26 12:57:13;;;;;;;5.65;2.65;;;;;;;;;;5041834;28;20878;-76
2022/06/26 12:59:38;;;;;;;6.05;2.20;;;;;;;;;;5051407;28;20049;-76
2022/06/26 13:02:04;;;;;;;6.55;2.50;;;;;;;;;;5036833;28;20142;-76
2022/06/26 13:04:29;;;;;;;5.38;2.50;;;;;;;;;;5038801;28;20032;-76
2022/06/26 13:06:54;;;;;;;5.72;2.80;;;;;;;;;;5051188;28;20025;-75
2022/06/26 13:09:20;;;;;;;5.45;2.72;;;;;;;;;;5056517;28;20120;-76
2022/06/26 13:11:45;;;;;;;9.07;2.88;;;;;;;;;;5051010;28;20123;-75
2022/06/26 13:14:11;;;;;;;6.85;3.20;;;;;;;;;;5036436;28;20037;-76
2022/06/26 13:16:37;;;;;;;9.02;2.78;;;;;;;;;;5055239;28;20071;-76
2022/06/26 13:19:03;;;;;;;6.63;2.83;;;;;;;;;;5055089;28;20152;-75
2022/06/26 13:21:28;;;;;;;4.38;2.25;;;;;;;;;;5055722;28;20088;-76
2022/06/26 13:23:54;;;;;;;8.90;2.85;;;;;;;;;;5013870;28;20033;-75
2022/06/26 13:26:19;;;;;;;11.40;2.95;;;;;;;;;;5035895;28;20381;-74
2022/06/26 13:28:45;;;;;;;7.95;2.80;;;;;;;;;;5050177;28;20080;-75
2022/06/26 13:31:10;;;;;;;6.63;2.47;;;;;;;;;;5047062;28;20115;-75
2022/06/26 13:33:35;;;;;;;9.45;2.75;;;;;;;;;;5045314;28;20493;-75
2022/06/26 13:36:01;;;;;;;7.43;3.00;;;;;;;;;;5020817;28;20120;-75
2022/06/26 13:38:26;;;;;;;6.40;2.50;;;;;;;;;;5031435;28;20033;-75
2022/06/26 13:40:52;;;;;;;8.77;2.83;;;;;;;;;;5027910;28;20117;-74
2022/06/26 13:43:17;;;;;;;5.60;2.30;;;;;;;;;;5034144;28;20148;-75
2022/06/26 13:45:43;;;;;;;5.82;2.75;;;;;;;;;;5035517;28;20025;-76
2022/06/26 13:48:08;;;;;;;3.50;2.33;;;;;;;;;;5036045;28;20094;-76
2022/06/26 13:50:33;;;;;;;4.63;2.40;;;;;;;;;;5050870;28;20037;-76
2022/06/26 13:52:59;;;;;;;5.97;2.50;;;;;;;;;;5036420;28;20049;-75
2022/06/26 13:55:24;;;;;;;8.05;2.08;;;;;;;;;;5041029;28;20033;-75
2022/06/26 13:57:49;;;;;;;6.95;2.55;;;;;;;;;;5011677;28;20061;-76
2022/06/26 14:00:15;;;;;;;5.57;2.45;;;;;;;;;;5048948;28;20163;-76
2022/06/26 14:02:40;;;;;;;8.52;2.60;;;;;;;;;;5054061;28;20032;-76
2022/06/26 14:05:06;;;;;;;9.05;2.60;;;;;;;;;;5057171;28;20024;-76
2022/06/26 14:07:32;;;;;;;8.63;2.35;;;;;;;;;;5059716;28;20028;-75
2022/06/26 14:09:57;;;;;;;6.40;2.17;;;;;;;;;;5061278;28;20356;-74
2022/06/26 14:12:23;;;;;;;4.40;2.25;;;;;;;;;;5061804;28;20048;-75
2022/06/26 14:14:48;;;;;;;10.35;3.28;;;;;;;;;;5039447;28;20041;-75
2022/06/26 14:17:13;;;;;;;5.18;2.33;;;;;;;;;;5056291;28;20580;-75
2022/06/26 14:19:39;;;;;;;8.00;2.35;;;;;;;;;;5022379;28;20178;-74
2022/06/26 14:27:32;;;;;;;6.25;2.70;;;;;;;;;;5056081;28;20043;-76
2022/06/26 14:29:57;;;;;;;7.82;3.03;;;;;;;;;;5052938;28;20742;-74
2022/06/26 14:32:22;;;;;;;7.75;3.40;;;;;;;;;;5053667;28;20159;-75
2022/06/26 14:34:48;;;;;;;6.50;2.65;;;;;;;;;;5035618;28;20164;-75
2022/06/26 14:37:13;;;;;;;11.00;3.10;;;;;;;;;;5036404;28;20543;-75
2022/06/26 14:39:38;;;;;;;6.13;3.00;;;;;;;;;;5056125;28;20155;-75
2022/06/26 14:42:04;;;;;;;10.23;3.80;;;;;;;;;;5049468;28;20135;-75
2022/06/26 14:44:30;;;;;;;5.07;2.65;;;;;;;;;;5049582;28;20035;-76